Terminal Aerodrome Forecast
Issued by NWS

Home | Current Version | Previous Version | Text Only | Print | Product List | Glossary On
Versions: 1 2 3 4 5 6 7 8 9 10 11 12 13 14 15 16 17 18 19 20 21 22 23
000
FTUS43 KDVN 180541
TAFBRL
TAF
KBRL 180541Z 1806/1906 07010KT P6SM SCT060
     FM181000 06014G21KT P6SM OVC050
     FM181400 04013KT 6SM -RA OVC015
     FM181700 36011KT 5SM -RASN BR OVC012
     FM182000 31015G22KT 3SM -SN BR OVC010
     FM190000 30012KT P6SM BKN020=

USA.gov is the U.S. government's official web portal to all federal, state and local government web resources and services.